Time;durP1;ratioP1;P1;durP2;ratioP2;P2;SDS_P1;SDS_P2;PMS_P1;PMS_P2;Temp;Humidity;BMP_temperature;BMP_pressure;BME280_temperature;BME280_humidity;BME280_pressure;Samples;Min_cycle;Max_cycle;Signal;HPM_P1;HPM_P2
2022/12/26 00:01:19;;;;;;;30.52;15.07;;;9.00;99.90;;;;;;4898339;29;20071;-73
2022/12/26 00:03:45;;;;;;;32.40;14.68;;;9.00;99.90;;;;;;4886031;29;20139;-73
2022/12/26 00:06:16;;;;;;;31.02;14.82;;;9.00;99.90;;;;;;4900716;29;20144;-72
2022/12/26 00:08:43;;;;;;;33.90;15.00;;;9.00;99.90;;;;;;4870961;29;20486;-73
2022/12/26 00:11:09;;;;;;;31.73;14.65;;;9.50;99.90;;;;;;4902997;29;20497;-73
2022/12/26 00:13:35;;;;;;;31.27;14.75;;;9.50;99.90;;;;;;4897077;29;20059;-73
2022/12/26 00:16:08;;;;;;;33.03;15.00;;;9.10;99.90;;;;;;4889401;29;20060;-73
2022/12/26 00:18:34;;;;;;;37.10;15.15;;;9.10;99.90;;;;;;4893515;29;20072;-74
2022/12/26 00:21:00;;;;;;;32.47;15.57;;;9.00;99.90;;;;;;4906571;29;20040;-73
2022/12/26 00:23:25;;;;;;;34.70;15.00;;;9.00;99.90;;;;;;4897953;29;20215;-73
2022/12/26 00:25:51;;;;;;;34.95;15.85;;;9.00;99.90;;;;;;4903191;29;20143;-73
2022/12/26 00:28:17;;;;;;;34.08;15.15;;;9.00;99.90;;;;;;4897502;29;20548;-74
2022/12/26 00:30:42;;;;;;;33.00;15.18;;;9.20;99.90;;;;;;4890120;29;20136;-73
2022/12/26 00:33:08;;;;;;;32.45;15.32;;;9.00;99.90;;;;;;4884436;29;20060;-74
2022/12/26 00:35:33;;;;;;;34.20;15.73;;;9.00;99.90;;;;;;4886497;29;20066;-74
2022/12/26 00:37:59;;;;;;;32.08;15.23;;;9.00;99.90;;;;;;4913048;29;20575;-73
2022/12/26 00:40:25;;;;;;;35.50;14.90;;;9.00;99.90;;;;;;4902106;29;20052;-73
2022/12/26 00:42:50;;;;;;;34.25;15.55;;;10.00;99.90;;;;;;4902317;29;20052;-73
2022/12/26 00:45:16;;;;;;;32.40;14.95;;;10.40;99.90;;;;;;4902951;29;20067;-73
2022/12/26 00:47:41;;;;;;;31.58;14.82;;;9.00;99.90;;;;;;4898425;29;20084;-73
2022/12/26 00:50:07;;;;;;;33.50;16.05;;;10.10;99.90;;;;;;4884121;29;20524;-73
2022/12/26 00:52:33;;;;;;;34.08;14.98;;;9.10;99.90;;;;;;4915867;29;20409;-73
2022/12/26 00:54:59;;;;;;;34.42;15.40;;;9.00;99.90;;;;;;4900871;29;20056;-73
2022/12/26 00:57:24;;;;;;;31.23;14.43;;;9.00;99.90;;;;;;4901658;29;20563;-73
2022/12/26 00:59:50;;;;;;;33.40;15.02;;;9.10;99.90;;;;;;4901571;29;20421;-73
2022/12/26 01:04:59;;;;;;;37.05;15.40;;;9.10;99.90;;;;;;4901120;29;20086;-73
2022/12/26 01:07:25;;;;;;;35.15;15.55;;;9.40;99.90;;;;;;4918432;29;20493;-73
2022/12/26 01:09:51;;;;;;;34.92;14.80;;;9.80;99.90;;;;;;4901974;29;20067;-73
2022/12/26 01:12:16;;;;;;;41.85;16.75;;;9.70;99.90;;;;;;4917440;29;20048;-73
2022/12/26 01:14:42;;;;;;;40.97;18.70;;;9.80;99.90;;;;;;4899791;29;20493;-73
2022/12/26 01:17:08;;;;;;;37.55;16.75;;;9.00;99.90;;;;;;4882336;29;20085;-73
2022/12/26 01:19:33;;;;;;;38.67;16.25;;;9.00;99.90;;;;;;4898531;29;20143;-73
2022/12/26 01:21:59;;;;;;;38.75;16.27;;;9.20;99.90;;;;;;4882343;29;20147;-73
2022/12/26 01:24:24;;;;;;;41.35;16.17;;;9.00;99.90;;;;;;4883526;29;20052;-73
2022/12/26 01:26:50;;;;;;;41.80;16.92;;;9.00;99.90;;;;;;4916760;29;20150;-73
2022/12/26 01:29:16;;;;;;;34.63;15.93;;;9.70;99.90;;;;;;4912843;29;20537;-73
2022/12/26 01:31:41;;;;;;;40.80;16.50;;;9.70;99.90;;;;;;4882171;29;20044;-73
2022/12/26 01:34:07;;;;;;;41.30;16.25;;;9.90;99.90;;;;;;4883582;29;20116;-73
2022/12/26 01:36:33;;;;;;;42.42;16.70;;;9.10;99.90;;;;;;4913926;29;20512;-73
2022/12/26 01:38:59;;;;;;;43.25;17.15;;;9.10;99.90;;;;;;4899532;29;20204;-73
2022/12/26 01:41:25;;;;;;;41.85;16.45;;;9.00;99.90;;;;;;4884508;29;20479;-73
2022/12/26 01:44:03;;;;;;;41.40;16.05;;;9.00;99.90;;;;;;4891153;29;20143;-74
2022/12/26 01:46:34;;;;;;;35.55;14.75;;;9.20;99.90;;;;;;4898949;29;20044;-73
2022/12/26 01:49:17;;;;;;;39.03;15.95;;;9.20;99.90;;;;;;4884471;29;20411;-73
2022/12/26 01:51:49;;;;;;;40.55;15.52;;;9.10;99.90;;;;;;4863305;29;20189;-73
2022/12/26 01:54:15;;;;;;;42.72;17.27;;;10.00;99.90;;;;;;4880548;29;20049;-73
2022/12/26 01:56:44;;;;;;;40.85;15.55;;;9.00;99.90;;;;;;4880183;29;20136;-73
2022/12/26 01:59:23;;;;;;;39.25;16.25;;;9.20;99.90;;;;;;4882587;29;20498;-73
2022/12/26 02:01:52;;;;;;;39.35;15.80;;;9.50;99.90;;;;;;4898535;29;20060;-73
2022/12/26 02:07:07;;;;;;;38.42;16.33;;;9.30;99.90;;;;;;4898728;29;20061;-73
2022/12/26 02:09:33;;;;;;;37.72;16.45;;;9.20;99.90;;;;;;4881784;29;20563;-73
2022/12/26 02:12:07;;;;;;;35.78;16.20;;;9.10;99.90;;;;;;4898414;29;20401;-73
2022/12/26 02:14:34;;;;;;;34.97;15.40;;;9.10;99.90;;;;;;4892738;29;20059;-73
2022/12/26 02:17:00;;;;;;;32.15;13.98;;;9.00;99.90;;;;;;4913007;29;20141;-73
2022/12/26 02:19:39;;;;;;;34.55;13.82;;;9.00;99.90;;;;;;4898103;29;20045;-73
2022/12/26 02:22:37;;;;;;;33.80;14.65;;;10.00;99.90;;;;;;4901274;29;20404;-73
2022/12/26 02:25:27;;;;;;;29.58;13.43;;;9.10;99.90;;;;;;4877426;29;20411;-74
2022/12/26 02:28:14;;;;;;;29.23;12.80;;;9.10;99.90;;;;;;4899458;29;20053;-73
2022/12/26 02:31:04;;;;;;;27.20;13.73;;;9.00;99.90;;;;;;4897950;29;20481;-73
2022/12/26 02:33:48;;;;;;;29.00;13.63;;;9.00;99.90;;;;;;4865899;29;20060;-73
2022/12/26 02:36:48;;;;;;;29.95;13.75;;;9.00;99.90;;;;;;4892390;29;20098;-73
2022/12/26 02:39:24;;;;;;;29.40;13.30;;;9.00;99.90;;;;;;4888199;29;20052;-73
2022/12/26 02:42:08;;;;;;;29.13;13.35;;;9.00;99.90;;;;;;4880854;29;20064;-73
2022/12/26 02:47:33;;;;;;;26.58;13.20;;;9.10;99.90;;;;;;4908421;29;20052;-73
2022/12/26 03:13:15;;;;;;;26.67;14.10;;;9.10;99.90;;;;;;4913217;29;20432;-73
2022/12/26 03:19:01;;;;;;;25.05;15.45;;;9.20;99.90;;;;;;4876063;29;20056;-73
2022/12/26 03:21:32;;;;;;;28.25;15.65;;;9.80;99.90;;;;;;4885370;29;20049;-73
2022/12/26 03:23:59;;;;;;;25.05;15.48;;;10.00;99.90;;;;;;4897287;29;20077;-73
2022/12/26 03:26:39;;;;;;;29.10;16.45;;;9.30;99.90;;;;;;4897371;29;20123;-73
2022/12/26 03:31:51;;;;;;;26.95;16.25;;;9.80;99.90;;;;;;4897031;29;20087;-73
2022/12/26 03:34:17;;;;;;;26.55;17.08;;;9.60;99.90;;;;;;4880786;29;20108;-73
2022/12/26 03:37:20;;;;;;;27.10;18.17;;;9.30;99.90;;;;;;4881307;29;20068;-73
2022/12/26 04:44:31;;;;;;;;;;;9.50;99.90;;;;;;4881984;29;20061;-73
2022/12/26 04:46:57;;;;;;;33.78;19.33;;;9.60;99.90;;;;;;4879957;29;20357;-73
2022/12/26 04:52:10;;;;;;;31.48;17.65;;;9.50;99.90;;;;;;4891175;29;20398;-73
2022/12/26 04:54:36;;;;;;;30.25;18.10;;;9.70;99.90;;;;;;4899066;29;20049;-73
2022/12/26 04:57:02;;;;;;;34.42;18.17;;;9.50;99.90;;;;;;4897993;29;20053;-73
2022/12/26 04:59:28;;;;;;;30.92;18.15;;;9.50;99.90;;;;;;4880050;29;20132;-73
2022/12/26 05:10:19;;;;;;;29.00;18.67;;;9.60;99.90;;;;;;4880858;29;20057;-73
2022/12/26 05:12:46;;;;;;;28.85;19.95;;;9.50;99.90;;;;;;4882134;29;20145;-73
2022/12/26 05:15:12;;;;;;;29.85;18.05;;;9.60;99.90;;;;;;4887173;29;20049;-73
2022/12/26 05:28:40;;;;;;;27.77;18.10;;;9.60;99.90;;;;;;4879540;29;20064;-73
2022/12/26 05:28:59;;;;;;;28.17;18.63;;;9.60;99.90;;;;;;4901970;29;20075;-73
2022/12/26 05:31:25;;;;;;;25.75;17.27;;;9.50;99.90;;;;;;4899568;29;20104;-73
2022/12/26 05:34:07;;;;;;;24.13;14.95;;;10.20;99.90;;;;;;4907745;29;20057;-73
2022/12/26 05:36:58;;;;;;;29.50;19.35;;;10.00;99.90;;;;;;4913752;29;20052;-73
2022/12/26 05:39:23;;;;;;;26.33;17.45;;;9.60;99.90;;;;;;4864394;29;20415;-73
2022/12/26 05:41:49;;;;;;;27.20;17.65;;;10.10;99.90;;;;;;4900029;29;20090;-73
2022/12/26 05:44:15;;;;;;;30.20;20.10;;;9.60;99.90;;;;;;4892732;29;20056;-73
2022/12/26 05:46:45;;;;;;;25.05;17.27;;;9.50;99.90;;;;;;4899251;29;20462;-73
2022/12/26 05:49:11;;;;;;;25.83;18.42;;;9.60;99.90;;;;;;4866618;29;20053;-74
2022/12/26 05:51:37;;;;;;;26.52;17.20;;;9.90;99.90;;;;;;4898320;29;20140;-73
2022/12/26 05:54:03;;;;;;;27.73;17.33;;;10.40;99.90;;;;;;4881635;29;20445;-73
2022/12/26 05:56:29;;;;;;;26.90;17.60;;;9.50;99.90;;;;;;4882178;29;20063;-73
2022/12/26 05:58:57;;;;;;;28.83;18.45;;;9.50;99.90;;;;;;4898981;29;20052;-73
2022/12/26 06:01:23;;;;;;;27.75;19.25;;;10.40;99.90;;;;;;4892579;29;20049;-73
2022/12/26 06:03:51;;;;;;;25.60;17.10;;;10.20;99.90;;;;;;4897722;29;20052;-73
2022/12/26 06:06:18;;;;;;;27.35;18.92;;;10.60;99.90;;;;;;4898820;29;20135;-73
2022/12/26 06:08:47;;;;;;;28.10;18.48;;;10.20;99.90;;;;;;4899064;29;20053;-73
2022/12/26 06:11:12;;;;;;;25.23;17.42;;;9.90;99.90;;;;;;4898393;29;20049;-73
2022/12/26 06:13:39;;;;;;;27.05;19.20;;;9.50;99.90;;;;;;4881920;29;20052;-73
2022/12/26 06:16:06;;;;;;;32.35;20.00;;;10.00;99.90;;;;;;4912770;29;20409;-73
2022/12/26 06:18:32;;;;;;;25.85;16.70;;;9.40;99.90;;;;;;4887070;29;20161;-73
2022/12/26 06:20:58;;;;;;;27.75;18.90;;;9.60;99.90;;;;;;4898448;29;20088;-73
2022/12/26 06:23:24;;;;;;;24.55;16.50;;;9.50;99.90;;;;;;4898252;29;20156;-73
2022/12/26 06:25:54;;;;;;;23.95;17.50;;;9.50;99.90;;;;;;4897012;29;20065;-73
2022/12/26 06:28:20;;;;;;;22.80;15.75;;;10.40;99.90;;;;;;4881460;29;20505;-73
2022/12/26 06:30:45;;;;;;;25.77;19.05;;;10.20;99.90;;;;;;4899168;29;20109;-73
2022/12/26 06:33:11;;;;;;;24.00;18.45;;;9.50;99.90;;;;;;4898504;29;20052;-73
2022/12/26 06:35:37;;;;;;;25.35;17.45;;;10.40;99.90;;;;;;4910425;29;20517;-73
2022/12/26 06:38:02;;;;;;;24.63;17.02;;;10.60;99.90;;;;;;4897991;29;20053;-73
2022/12/26 06:40:28;;;;;;;25.75;17.10;;;9.50;99.90;;;;;;4905161;29;20102;-73
2022/12/26 06:42:53;;;;;;;21.67;15.73;;;9.50;99.90;;;;;;4909067;29;20078;-73
2022/12/26 06:45:19;;;;;;;24.08;16.92;;;10.10;99.90;;;;;;4897720;29;20059;-73
2022/12/26 06:47:45;;;;;;;23.83;14.57;;;9.60;99.90;;;;;;4894879;29;20137;-73
2022/12/26 06:50:11;;;;;;;22.15;15.68;;;9.60;99.90;;;;;;4898939;29;20526;-73
2022/12/26 06:52:37;;;;;;;21.90;16.08;;;9.60;99.90;;;;;;4899440;29;20138;-73
2022/12/26 06:55:03;;;;;;;21.25;14.60;;;9.60;99.90;;;;;;4916594;29;20552;-73
2022/12/26 06:57:29;;;;;;;28.13;15.43;;;9.60;99.90;;;;;;4916539;29;20055;-73
2022/12/26 06:59:55;;;;;;;23.35;15.52;;;9.60;99.90;;;;;;4914829;29;20488;-73
2022/12/26 07:02:20;;;;;;;24.83;13.50;;;10.70;99.90;;;;;;4899012;29;20044;-73
2022/12/26 07:04:46;;;;;;;24.15;14.43;;;9.60;99.90;;;;;;4915156;29;20135;-73
2022/12/26 07:07:11;;;;;;;16.50;11.95;;;10.10;99.90;;;;;;4889751;29;20122;-73
2022/12/26 07:09:37;;;;;;;20.88;13.85;;;9.60;99.90;;;;;;4881761;29;20063;-73
2022/12/26 07:12:03;;;;;;;21.88;14.25;;;9.80;99.90;;;;;;4897289;29;20343;-73
2022/12/26 07:14:28;;;;;;;21.70;14.00;;;9.60;99.90;;;;;;4896633;29;20118;-73
2022/12/26 07:16:54;;;;;;;21.95;14.27;;;10.70;99.90;;;;;;4884630;29;20071;-73
2022/12/26 07:19:20;;;;;;;18.30;13.60;;;10.50;99.90;;;;;;4896423;29;20096;-73
2022/12/26 07:21:45;;;;;;;19.17;13.45;;;9.60;99.90;;;;;;4897421;29;20502;-73
2022/12/26 07:24:19;;;;;;;19.58;13.00;;;9.60;99.90;;;;;;4861947;29;20140;-73
2022/12/26 07:26:46;;;;;;;18.65;12.35;;;9.90;99.90;;;;;;4877722;29;20107;-73
2022/12/26 07:29:12;;;;;;;18.85;12.30;;;10.60;99.90;;;;;;4877568;29;20093;-73
2022/12/26 07:31:39;;;;;;;17.42;12.00;;;9.60;99.90;;;;;;4877250;29;20089;-73
2022/12/26 07:34:05;;;;;;;17.00;9.30;;;9.60;99.90;;;;;;4879070;29;20117;-73
2022/12/26 07:36:31;;;;;;;18.15;11.70;;;10.40;99.90;;;;;;4877442;29;20106;-73
2022/12/26 07:38:56;;;;;;;20.55;11.52;;;9.90;99.90;;;;;;4894937;29;20466;-73
2022/12/26 07:44:08;;;;;;;17.30;11.45;;;9.70;99.90;;;;;;4898272;29;20176;-73
2022/12/26 07:46:34;;;;;;;19.20;10.77;;;9.70;99.90;;;;;;4903804;29;20088;-73
2022/12/26 07:48:59;;;;;;;15.60;10.85;;;10.00;99.90;;;;;;4878697;29;20498;-73
2022/12/26 07:51:25;;;;;;;21.42;10.52;;;9.60;99.90;;;;;;4891945;29;20064;-73
2022/12/26 07:53:51;;;;;;;13.77;9.82;;;9.60;99.90;;;;;;4880720;29;20061;-73
2022/12/26 07:56:17;;;;;;;15.38;9.55;;;9.80;99.90;;;;;;4897205;29;20057;-73
2022/12/26 07:58:42;;;;;;;14.30;9.45;;;9.70;99.90;;;;;;4883815;29;20502;-73
2022/12/26 08:01:08;;;;;;;15.40;9.57;;;9.70;99.90;;;;;;4901013;29;20484;-73
2022/12/26 08:03:34;;;;;;;17.55;9.38;;;10.50;99.90;;;;;;4868730;29;20052;-73
2022/12/26 08:06:00;;;;;;;15.18;9.52;;;9.70;99.90;;;;;;4885004;29;20053;-73
2022/12/26 08:08:26;;;;;;;16.23;10.02;;;9.60;99.90;;;;;;4900744;29;20060;-73
2022/12/26 08:11:03;;;;;;;15.02;9.70;;;10.10;99.90;;;;;;4900555;29;20059;-73
2022/12/26 08:13:29;;;;;;;12.00;7.68;;;9.70;99.90;;;;;;4900780;29;20056;-73
2022/12/26 08:15:55;;;;;;;13.30;7.53;;;9.80;99.90;;;;;;4900276;29;20434;-73
2022/12/26 08:18:21;;;;;;;13.35;8.90;;;9.70;99.90;;;;;;4896586;29;20048;-73
2022/12/26 08:20:46;;;;;;;15.77;7.78;;;9.70;99.90;;;;;;4897495;29;20430;-73
2022/12/26 08:23:12;;;;;;;14.18;8.90;;;10.70;99.90;;;;;;4882494;29;20084;-73
2022/12/26 08:25:38;;;;;;;14.68;7.82;;;10.70;99.90;;;;;;4897306;29;20108;-73
2022/12/26 08:28:04;;;;;;;9.48;5.57;;;9.70;99.90;;;;;;4899963;29;20084;-73
2022/12/26 08:30:29;;;;;;;11.32;6.53;;;9.70;99.90;;;;;;4883735;29;20092;-73
2022/12/26 08:32:55;;;;;;;12.57;7.70;;;9.80;99.90;;;;;;4900209;29;21116;-72
2022/12/26 08:35:20;;;;;;;12.98;7.90;;;10.70;99.90;;;;;;4899936;29;20056;-73
2022/12/26 08:37:46;;;;;;;11.55;7.38;;;10.10;99.90;;;;;;4899937;29;20069;-73
2022/12/26 08:40:12;;;;;;;9.98;6.93;;;10.00;99.90;;;;;;4899772;29;20435;-73
2022/12/26 08:42:38;;;;;;;11.98;7.28;;;9.70;99.90;;;;;;4899561;29;20108;-73
2022/12/26 08:45:04;;;;;;;14.98;6.20;;;10.20;99.90;;;;;;4899923;29;20425;-73
2022/12/26 08:47:30;;;;;;;13.38;6.65;;;9.90;99.90;;;;;;4899982;29;20048;-73
2022/12/26 08:49:55;;;;;;;11.98;6.95;;;9.90;99.90;;;;;;4908078;29;20060;-73
2022/12/26 08:52:21;;;;;;;13.00;6.90;;;9.80;99.90;;;;;;4916358;29;20102;-72
2022/12/26 08:54:47;;;;;;;12.90;7.25;;;9.90;99.90;;;;;;4903397;29;20053;-73
2022/12/26 08:57:12;;;;;;;14.25;7.18;;;9.80;99.90;;;;;;4917477;29;20066;-73
2022/12/26 08:59:38;;;;;;;18.02;7.85;;;9.80;99.90;;;;;;4914885;29;20489;-73
2022/12/26 09:02:04;;;;;;;14.35;7.38;;;10.10;99.90;;;;;;4881516;29;20084;-73
2022/12/26 09:04:29;;;;;;;12.93;7.15;;;9.70;99.90;;;;;;4867789;29;20060;-73
2022/12/26 09:06:55;;;;;;;13.45;7.40;;;9.70;99.90;;;;;;4899913;29;20056;-73
2022/12/26 09:09:20;;;;;;;17.23;8.98;;;9.70;99.90;;;;;;4899742;29;20386;-73
2022/12/26 09:11:46;;;;;;;12.05;7.97;;;9.60;99.90;;;;;;4899497;29;20506;-72
2022/12/26 09:14:12;;;;;;;12.35;8.27;;;10.00;99.90;;;;;;4899919;29;20076;-73
2022/12/26 09:16:45;;;;;;;14.23;8.52;;;9.50;99.90;;;;;;4899409;29;20063;-73
2022/12/26 09:19:12;;;;;;;11.77;7.38;;;9.50;99.90;;;;;;4881139;29;20053;-72
2022/12/26 09:21:39;;;;;;;16.67;7.80;;;10.20;99.90;;;;;;4864045;29;20057;-72
2022/12/26 09:24:08;;;;;;;15.63;7.95;;;9.50;99.90;;;;;;4868505;29;20053;-72
2022/12/26 09:26:34;;;;;;;13.98;8.40;;;9.40;99.90;;;;;;4900162;29;20061;-73
2022/12/26 09:29:00;;;;;;;18.52;7.80;;;9.50;99.90;;;;;;4899391;29;20062;-72
2022/12/26 09:31:29;;;;;;;12.13;7.60;;;9.80;99.90;;;;;;4899269;29;20053;-73
2022/12/26 09:33:55;;;;;;;14.43;7.63;;;9.40;99.90;;;;;;4867171;29;20060;-72
2022/12/26 09:36:23;;;;;;;13.25;7.53;;;9.40;99.90;;;;;;4898470;29;20049;-73
2022/12/26 09:38:49;;;;;;;11.23;7.40;;;9.40;99.90;;;;;;4882281;29;20476;-74
2022/12/26 09:41:25;;;;;;;11.88;6.82;;;9.30;99.90;;;;;;4899016;29;20108;-74
2022/12/26 09:44:14;;;;;;;9.95;5.47;;;9.30;99.90;;;;;;4885574;29;20071;-76
2022/12/26 09:47:10;;;;;;;10.18;4.95;;;9.40;99.90;;;;;;4904040;29;20080;-77
2022/12/26 09:49:48;;;;;;;10.60;3.50;;;9.40;99.90;;;;;;4868663;29;20048;-75
2022/12/26 09:52:21;;;;;;;14.38;3.47;;;9.40;99.90;;;;;;4882224;29;20453;-75
2022/12/26 09:54:53;;;;;;;16.33;2.83;;;10.20;99.90;;;;;;4881094;29;20067;-74
2022/12/26 09:57:29;;;;;;;9.60;2.65;;;10.20;99.90;;;;;;4864665;29;20049;-74
2022/12/26 09:59:57;;;;;;;13.15;3.45;;;9.80;99.90;;;;;;4899131;29;20064;-75
2022/12/26 10:02:25;;;;;;;12.95;2.60;;;9.30;99.90;;;;;;4888573;29;20438;-74
2022/12/26 10:04:52;;;;;;;15.70;2.38;;;9.20;99.90;;;;;;4897682;29;20121;-73
2022/12/26 10:07:29;;;;;;;12.55;2.80;;;9.40;99.90;;;;;;4898900;29;20183;-74
2022/12/26 10:10:28;;;;;;;12.65;2.50;;;9.50;99.90;;;;;;4897489;29;20065;-72
2022/12/26 10:13:44;;;;;;;10.57;2.10;;;9.60;99.90;;;;;;4898583;29;20108;-73
2022/12/26 10:16:25;;;;;;;16.70;2.63;;;9.60;99.90;;;;;;4882739;29;20061;-73
2022/12/26 10:19:19;;;;;;;10.80;2.08;;;9.50;99.90;;;;;;4891802;29;20059;-73
2022/12/26 10:22:03;;;;;;;12.00;2.42;;;9.40;99.90;;;;;;4901837;29;20135;-73
2022/12/26 10:24:32;;;;;;;11.68;2.38;;;;;;;;;;4896032;29;20071;-73
2022/12/26 10:27:03;;;;;;;12.43;2.72;;;;;;;;;;4884556;29;20063;-73
2022/12/26 10:29:38;;;;;;;8.38;2.10;;;;;;;;;;4880038;29;20060;-72
2022/12/26 10:32:07;;;;;;;13.13;2.75;;;;;;;;;;4887437;29;20061;-73
2022/12/26 10:34:40;;;;;;;12.35;2.30;;;;;;;;;;4891163;29;20136;-73
2022/12/26 10:37:23;;;;;;;15.32;2.70;;;9.80;99.90;;;;;;4891248;29;20066;-73
2022/12/26 10:40:17;;;;;;;9.38;2.40;;;9.70;99.90;;;;;;4889411;29;20054;-74
2022/12/26 10:43:25;;;;;;;9.70;2.22;;;9.50;99.90;;;;;;4913045;29;20048;-73
2022/12/26 10:46:18;;;;;;;9.63;2.20;;;9.40;99.90;;;;;;4902187;29;20053;-73
2022/12/26 10:48:44;;;;;;;7.43;2.20;;;9.30;99.90;;;;;;4896882;29;20059;-73
2022/12/26 10:51:11;;;;;;;6.70;1.77;;;9.90;99.90;;;;;;4906521;29;20049;-73
2022/12/26 10:53:41;;;;;;;9.52;2.85;;;9.00;99.90;;;;;;4898844;29;20052;-73
2022/12/26 10:56:07;;;;;;;10.82;2.40;;;9.70;99.90;;;;;;4868150;29;20059;-73
2022/12/26 10:58:36;;;;;;;9.15;1.98;;;9.00;99.90;;;;;;4913982;29;20041;-73
2022/12/26 11:01:27;;;;;;;10.27;2.17;;;8.60;99.90;;;;;;4905022;29;20408;-74
2022/12/26 11:04:14;;;;;;;8.27;1.73;;;8.50;99.90;;;;;;4871966;29;20053;-73
2022/12/26 11:06:42;;;;;;;10.38;2.00;;;8.40;99.90;;;;;;4893788;29;20072;-73
2022/12/26 11:09:37;;;;;;;10.32;1.95;;;8.40;99.90;;;;;;4890131;29;20415;-73
2022/12/26 11:12:04;;;;;;;12.48;2.20;;;8.40;99.90;;;;;;4901116;29;20048;-74
2022/12/26 11:14:39;;;;;;;11.07;2.25;;;8.30;99.90;;;;;;4892878;29;20053;-74
2022/12/26 11:17:08;;;;;;;12.50;2.22;;;9.00;99.90;;;;;;4909412;29;20044;-73
2022/12/26 11:19:43;;;;;;;14.43;2.67;;;8.20;99.90;;;;;;4901934;29;20052;-73
2022/12/26 11:22:21;;;;;;;11.15;2.13;;;8.40;99.90;;;;;;4898382;29;20439;-73
2022/12/26 11:25:10;;;;;;;10.57;2.22;;;8.40;99.90;;;;;;4898518;29;20534;-74
2022/12/26 11:27:38;;;;;;;11.23;2.53;;;8.50;99.90;;;;;;4888614;29;20052;-73
2022/12/26 11:30:12;;;;;;;12.80;2.17;;;8.60;99.90;;;;;;4900472;29;20146;-74
2022/12/26 11:32:42;;;;;;;7.47;2.30;;;8.70;99.90;;;;;;4896192;29;20070;-73
2022/12/26 11:35:21;;;;;;;9.45;2.40;;;8.60;99.90;;;;;;4878205;29;20060;-74
2022/12/26 11:37:54;;;;;;;15.60;1.95;;;8.80;99.90;;;;;;4896078;29;20060;-73
2022/12/26 11:40:26;;;;;;;9.52;2.17;;;8.50;99.90;;;;;;4896531;29;20064;-73
2022/12/26 11:43:04;;;;;;;14.25;2.92;;;9.50;99.90;;;;;;4879865;29;20061;-73
2022/12/26 11:45:31;;;;;;;10.50;2.20;;;9.80;99.90;;;;;;4880597;29;20461;-73
2022/12/26 11:47:59;;;;;;;14.50;2.80;;;8.60;99.90;;;;;;4874494;29;20112;-73
2022/12/26 11:50:28;;;;;;;12.60;2.38;;;8.50;99.90;;;;;;4878711;29;20060;-73
2022/12/26 11:52:57;;;;;;;10.65;2.90;;;8.30;99.90;;;;;;4878726;29;20448;-73
2022/12/26 11:58:07;;;;;;;9.13;1.83;;;8.30;99.90;;;;;;4878646;29;20049;-73
2022/12/26 12:00:46;;;;;;;16.48;3.28;;;8.30;99.90;;;;;;4862109;29;20457;-73
2022/12/26 12:03:16;;;;;;;13.90;2.70;;;8.30;99.90;;;;;;4861999;29;20100;-73
2022/12/26 12:06:07;;;;;;;17.70;3.20;;;8.50;99.90;;;;;;4878513;29;20109;-74
2022/12/26 12:08:41;;;;;;;15.35;3.00;;;8.40;99.90;;;;;;4895089;29;20052;-73
2022/12/26 12:11:28;;;;;;;13.35;3.05;;;8.30;99.90;;;;;;4877350;29;20160;-74
2022/12/26 12:14:32;;;;;;;11.35;3.35;;;8.30;99.90;;;;;;4880490;29;20061;-74
2022/12/26 12:17:28;;;;;;;16.67;3.15;;;8.30;99.90;;;;;;4897621;29;20052;-73
2022/12/26 12:20:04;;;;;;;14.23;2.43;;;8.40;99.90;;;;;;4894082;29;20056;-74
2022/12/26 12:22:33;;;;;;;10.52;2.95;;;8.40;99.90;;;;;;4898376;29;20063;-73
2022/12/26 12:25:43;;;;;;;13.90;2.97;;;8.40;99.90;;;;;;4903367;29;20092;-75
2022/12/26 12:28:15;;;;;;;12.43;2.78;;;8.50;99.90;;;;;;4893807;29;20497;-73
2022/12/26 12:30:43;;;;;;;13.30;2.92;;;8.70;99.90;;;;;;4902132;29;20049;-74
2022/12/26 12:33:23;;;;;;;14.98;2.80;;;8.70;99.90;;;;;;4915201;29;20052;-75
2022/12/26 12:36:21;;;;;;;15.40;2.85;;;9.20;99.90;;;;;;4913106;29;20056;-74
2022/12/26 12:39:17;;;;;;;13.65;2.85;;;;;;;;;;4916007;29;20095;-73
2022/12/26 12:42:01;;;;;;;12.02;2.90;;;;;;;;;;4906865;29;20060;-74
2022/12/26 12:44:34;;;;;;;11.98;3.08;;;;;;;;;;4901552;29;20052;-74
2022/12/26 12:47:06;;;;;;;12.63;3.05;;;;;;;;;;4916354;29;20474;-72
2022/12/26 12:49:35;;;;;;;13.63;2.63;;;;;;;;;;4899730;29;20052;-72
2022/12/26 12:52:10;;;;;;;13.93;2.83;;;;;;;;;;4900067;29;20504;-73
2022/12/26 12:54:56;;;;;;;12.50;2.60;;;;;;;;;;4900043;29;20089;-73
2022/12/26 12:57:22;;;;;;;;;;;;;;;;;;4901248;29;20076;-74
2022/12/26 12:59:54;;;;;;;15.63;2.70;;;;;;;;;;4900118;29;19919;-73
2022/12/26 13:02:24;;;;;;;14.25;3.13;;;;;;;;;;4899116;29;20056;-73
2022/12/26 13:04:55;;;;;;;15.27;3.28;;;;;;;;;;4899938;29;20060;-74
2022/12/26 13:07:24;;;;;;;16.40;3.17;;;;;;;;;;4898450;29;20072;-74
2022/12/26 13:09:52;;;;;;;14.45;3.33;;;;;;;;;;4881574;29;20079;-74
2022/12/26 13:12:23;;;;;;;16.00;3.08;;;;;;;;;;4886885;29;20059;-75
2022/12/26 13:14:58;;;;;;;15.90;3.33;;;;;;;;;;4918813;29;20168;-74
2022/12/26 13:17:24;;;;;;;16.35;3.30;;;;;;;;;;4891755;29;20060;-74
2022/12/26 13:19:59;;;;;;;10.52;3.08;;;;;;;;;;4881016;29;20048;-73
2022/12/26 13:24:22;;;;;;;16.45;3.47;;;;;;;;;;4863742;29;20140;-73
2022/12/26 13:25:15;;;;;;;12.90;3.50;;;;;;;;;;4889222;29;20060;-74
2022/12/26 13:27:41;;;;;;;13.27;3.17;;;;;;;;;;4907901;29;20485;-73
2022/12/26 13:30:15;;;;;;;13.73;2.67;;;;;;;;;;4898521;29;20065;-73
2022/12/26 13:32:41;;;;;;;16.45;2.90;;;;;;;;;;4880195;29;20593;-73
2022/12/26 13:35:34;;;;;;;12.55;2.95;;;;;;;;;;4882393;29;20057;-74
2022/12/26 13:38:00;;;;;;;15.70;2.40;;;;;;;;;;4873498;29;20057;-73
2022/12/26 13:40:30;;;;;;;10.73;2.30;;;;;;;;;;4897630;29;20108;-74
2022/12/26 13:46:01;;;;;;;14.05;2.65;;;9.10;99.90;;;;;;4886953;29;20052;-74
2022/12/26 13:48:28;;;;;;;15.00;2.90;;;10.70;99.90;;;;;;4877986;29;20057;-75
2022/12/26 13:51:03;;;;;;;13.50;3.25;;;10.70;99.90;;;;;;4863299;29;20061;-74
2022/12/26 13:53:37;;;;;;;12.20;2.40;;;9.50;99.90;;;;;;4912403;29;20052;-75
2022/12/26 13:56:18;;;;;;;10.07;2.35;;;9.40;99.90;;;;;;4904228;29;20447;-74
2022/12/26 13:59:08;;;;;;;16.20;3.15;;;9.30;99.90;;;;;;4882002;29;20065;-74
2022/12/26 14:01:42;;;;;;;10.77;2.72;;;9.10;99.90;;;;;;4881728;29;20143;-73
2022/12/26 14:04:41;;;;;;;16.13;3.05;;;9.10;99.90;;;;;;4898445;29;20059;-73
2022/12/26 14:07:20;;;;;;;16.25;3.45;;;9.00;99.90;;;;;;4881563;29;20056;-76
2022/12/26 14:09:59;;;;;;;13.88;2.75;;;8.90;99.90;;;;;;4898601;29;20058;-76
2022/12/26 14:12:56;;;;;;;14.90;3.03;;;8.90;99.90;;;;;;4882258;29;20053;-76
2022/12/26 14:15:29;;;;;;;15.30;3.10;;;9.00;99.90;;;;;;4864718;29;20159;-75
2022/12/26 14:18:23;;;;;;;10.30;2.50;;;8.90;99.90;;;;;;4901597;29;20084;-77
2022/12/26 14:20:52;;;;;;;14.02;3.17;;;8.90;99.90;;;;;;4889899;29;20063;-76
2022/12/26 14:23:24;;;;;;;10.65;2.75;;;8.80;99.90;;;;;;4898187;29;20049;-76
2022/12/26 14:26:16;;;;;;;12.10;3.28;;;8.70;99.90;;;;;;4898485;29;20417;-76
2022/12/26 14:29:19;;;;;;;11.73;2.40;;;8.80;99.90;;;;;;4898520;29;20423;-77
2022/12/26 14:32:15;;;;;;;15.05;3.03;;;8.70;99.90;;;;;;4881349;29;20764;-75
2022/12/26 14:34:44;;;;;;;12.77;2.38;;;8.60;99.90;;;;;;4896410;29;20175;-75
2022/12/26 14:37:29;;;;;;;14.98;3.35;;;8.40;99.90;;;;;;4881668;29;20410;-77
2022/12/26 14:40:22;;;;;;;16.33;2.97;;;8.30;99.90;;;;;;4865792;29;20183;-78
2022/12/26 14:43:16;;;;;;;13.45;2.70;;;8.20;99.90;;;;;;4898240;29;20052;-76
2022/12/26 14:45:49;;;;;;;16.08;3.47;;;8.10;99.90;;;;;;4888897;29;20057;-75
2022/12/26 14:48:15;;;;;;;12.65;2.65;;;8.00;99.90;;;;;;4897886;29;20139;-75
2022/12/26 14:50:48;;;;;;;13.02;3.00;;;8.70;99.90;;;;;;4880634;29;20143;-76
2022/12/26 14:53:28;;;;;;;13.10;3.03;;;7.90;99.90;;;;;;4896983;29;20390;-75
2022/12/26 14:56:09;;;;;;;10.50;2.70;;;7.80;99.90;;;;;;4889765;29;20060;-76
2022/12/26 14:58:51;;;;;;;12.20;2.90;;;7.70;99.90;;;;;;4889086;29;20115;-76
2022/12/26 15:01:23;;;;;;;15.95;2.97;;;7.60;99.90;;;;;;4915460;29;20048;-74
2022/12/26 15:04:07;;;;;;;18.02;2.95;;;7.60;99.90;;;;;;4887516;29;20147;-75
2022/12/26 15:07:01;;;;;;;11.35;2.53;;;7.70;99.90;;;;;;4880671;29;20060;-74
2022/12/26 15:09:30;;;;;;;16.70;3.40;;;7.60;99.90;;;;;;4897874;29;20059;-73
2022/12/26 15:12:34;;;;;;;14.80;2.60;;;7.60;99.90;;;;;;4863795;29;20052;-75
2022/12/26 15:15:25;;;;;;;11.70;2.67;;;7.50;99.90;;;;;;4880859;29;20108;-75
2022/12/26 15:18:09;;;;;;;16.15;2.63;;;7.40;99.90;;;;;;4872491;29;20413;-74
2022/12/26 15:20:55;;;;;;;13.93;2.90;;;7.40;99.90;;;;;;4878796;29;20422;-74
2022/12/26 15:23:40;;;;;;;11.25;2.80;;;7.30;99.90;;;;;;4862047;29;20065;-74
2022/12/26 15:26:27;;;;;;;16.23;3.13;;;7.30;99.90;;;;;;4875734;29;20540;-74
2022/12/26 15:29:21;;;;;;;13.80;2.58;;;7.20;99.90;;;;;;4873104;29;20079;-74